sensor_id;sensor_type;location;lat;lon;timestamp;pressure;altitude;pressure_sealevel;temperature;humidity
76229;BME280;65021;53.174;18.160;2023-04-15T00:01:04;100362.98;;;8.86;72.27
76229;BME280;65021;53.174;18.160;2023-04-15T00:03:31;100368.09;;;8.85;72.40
76229;BME280;65021;53.174;18.160;2023-04-15T00:05:59;100371.80;;;8.82;72.53
76229;BME280;65021;53.174;18.160;2023-04-15T00:08:26;100371.65;;;8.80;72.55
76229;BME280;65021;53.174;18.160;2023-04-15T00:10:54;100372.81;;;8.77;72.57
76229;BME280;65021;53.174;18.160;2023-04-15T00:13:20;100374.53;;;8.74;72.34
76229;BME280;65021;53.174;18.160;2023-04-15T00:15:47;100376.75;;;8.72;72.50
76229;BME280;65021;53.174;18.160;2023-04-15T00:18:13;100380.64;;;8.70;72.60
76229;BME280;65021;53.174;18.160;2023-04-15T00:20:40;100375.50;;;8.69;73.05
76229;BME280;65021;53.174;18.160;2023-04-15T00:23:06;100369.23;;;8.67;73.50
76229;BME280;65021;53.174;18.160;2023-04-15T00:25:33;100370.00;;;8.65;73.25
76229;BME280;65021;53.174;18.160;2023-04-15T00:28:00;100365.04;;;8.61;73.39
76229;BME280;65021;53.174;18.160;2023-04-15T00:30:27;100363.30;;;8.58;72.96
76229;BME280;65021;53.174;18.160;2023-04-15T00:32:54;100360.38;;;8.53;73.90
76229;BME280;65021;53.174;18.160;2023-04-15T00:35:20;100358.10;;;8.50;73.73
76229;BME280;65021;53.174;18.160;2023-04-15T00:37:47;100362.21;;;8.46;73.39
76229;BME280;65021;53.174;18.160;2023-04-15T00:40:16;100364.51;;;8.42;73.65
76229;BME280;65021;53.174;18.160;2023-04-15T00:42:44;100370.15;;;8.42;73.54
76229;BME280;65021;53.174;18.160;2023-04-15T00:45:10;100366.41;;;8.43;73.63
76229;BME280;65021;53.174;18.160;2023-04-15T00:47:38;100368.65;;;8.47;74.27
76229;BME280;65021;53.174;18.160;2023-04-15T00:50:07;100364.55;;;8.51;74.12
76229;BME280;65021;53.174;18.160;2023-04-15T00:52:34;100364.61;;;8.57;74.09
76229;BME280;65021;53.174;18.160;2023-04-15T00:55:02;100365.64;;;8.61;73.94
76229;BME280;65021;53.174;18.160;2023-04-15T00:57:30;100365.68;;;8.65;74.19
76229;BME280;65021;53.174;18.160;2023-04-15T00:59:57;100362.20;;;8.68;74.20
76229;BME280;65021;53.174;18.160;2023-04-15T01:02:23;100362.40;;;8.72;74.00
76229;BME280;65021;53.174;18.160;2023-04-15T01:04:50;100360.45;;;8.75;73.91
76229;BME280;65021;53.174;18.160;2023-04-15T01:07:17;100362.02;;;8.78;74.15
76229;BME280;65021;53.174;18.160;2023-04-15T01:09:44;100363.11;;;8.80;73.91
76229;BME280;65021;53.174;18.160;2023-04-15T01:12:13;100365.10;;;8.81;74.14
76229;BME280;65021;53.174;18.160;2023-04-15T01:14:41;100361.14;;;8.83;74.20
76229;BME280;65021;53.174;18.160;2023-04-15T01:17:08;100362.66;;;8.84;74.03
76229;BME280;65021;53.174;18.160;2023-04-15T01:19:37;100360.20;;;8.85;74.03
76229;BME280;65021;53.174;18.160;2023-04-15T01:22:05;100359.20;;;8.88;74.02
76229;BME280;65021;53.174;18.160;2023-04-15T01:24:32;100360.38;;;8.89;73.96
76229;BME280;65021;53.174;18.160;2023-04-15T01:26:59;100358.56;;;8.90;73.80
76229;BME280;65021;53.174;18.160;2023-04-15T01:29:26;100360.51;;;8.90;73.88
76229;BME280;65021;53.174;18.160;2023-04-15T01:31:54;100365.12;;;8.90;73.93
76229;BME280;65021;53.174;18.160;2023-04-15T01:34:22;100361.19;;;8.90;74.22
76229;BME280;65021;53.174;18.160;2023-04-15T01:36:48;100361.34;;;8.90;73.98
76229;BME280;65021;53.174;18.160;2023-04-15T01:39:15;100361.83;;;8.89;74.09
76229;BME280;65021;53.174;18.160;2023-04-15T01:41:42;100363.08;;;8.88;74.08
76229;BME280;65021;53.174;18.160;2023-04-15T01:44:08;100355.61;;;8.89;74.00
76229;BME280;65021;53.174;18.160;2023-04-15T01:46:36;100357.73;;;8.89;74.14
76229;BME280;65021;53.174;18.160;2023-04-15T01:49:03;100357.66;;;8.88;74.25
76229;BME280;65021;53.174;18.160;2023-04-15T01:51:29;100357.76;;;8.88;74.08
76229;BME280;65021;53.174;18.160;2023-04-15T01:53:56;100361.30;;;8.88;74.27
76229;BME280;65021;53.174;18.160;2023-04-15T01:56:23;100357.90;;;8.87;74.49
76229;BME280;65021;53.174;18.160;2023-04-15T01:58:49;100361.71;;;8.86;74.10
76229;BME280;65021;53.174;18.160;2023-04-15T02:01:16;100359.62;;;8.87;74.06
76229;BME280;65021;53.174;18.160;2023-04-15T02:03:45;100357.08;;;8.87;74.21
76229;BME280;65021;53.174;18.160;2023-04-15T02:06:11;100356.88;;;8.91;74.16
76229;BME280;65021;53.174;18.160;2023-04-15T02:08:38;100362.85;;;8.93;74.05
76229;BME280;65021;53.174;18.160;2023-04-15T02:11:05;100360.98;;;8.96;74.08
76229;BME280;65021;53.174;18.160;2023-04-15T02:13:31;100361.72;;;9.00;74.10
76229;BME280;65021;53.174;18.160;2023-04-15T02:15:58;100360.92;;;9.02;74.18
76229;BME280;65021;53.174;18.160;2023-04-15T02:18:25;100360.63;;;9.04;74.11
76229;BME280;65021;53.174;18.160;2023-04-15T02:20:51;100360.13;;;9.06;74.15
76229;BME280;65021;53.174;18.160;2023-04-15T02:23:18;100360.70;;;9.07;74.21
76229;BME280;65021;53.174;18.160;2023-04-15T02:25:45;100358.96;;;9.09;74.05
76229;BME280;65021;53.174;18.160;2023-04-15T02:28:12;100357.39;;;9.10;73.84
76229;BME280;65021;53.174;18.160;2023-04-15T02:30:39;100357.74;;;9.12;73.80
76229;BME280;65021;53.174;18.160;2023-04-15T02:33:06;100352.92;;;9.12;73.90
76229;BME280;65021;53.174;18.160;2023-04-15T02:35:33;100360.05;;;9.12;74.12
76229;BME280;65021;53.174;18.160;2023-04-15T02:37:59;100357.86;;;9.12;74.09
76229;BME280;65021;53.174;18.160;2023-04-15T02:40:26;100359.30;;;9.11;74.12
76229;BME280;65021;53.174;18.160;2023-04-15T02:42:53;100360.34;;;9.10;74.22
76229;BME280;65021;53.174;18.160;2023-04-15T02:45:19;100355.90;;;9.11;73.97
76229;BME280;65021;53.174;18.160;2023-04-15T02:47:49;100355.44;;;9.10;73.97
76229;BME280;65021;53.174;18.160;2023-04-15T02:50:16;100358.98;;;9.10;74.16
76229;BME280;65021;53.174;18.160;2023-04-15T02:52:43;100358.86;;;9.09;74.25
76229;BME280;65021;53.174;18.160;2023-04-15T02:55:10;100358.16;;;9.10;73.92
76229;BME280;65021;53.174;18.160;2023-04-15T02:57:37;100357.13;;;9.11;74.12
76229;BME280;65021;53.174;18.160;2023-04-15T03:00:05;100363.63;;;9.12;73.98
76229;BME280;65021;53.174;18.160;2023-04-15T03:02:36;100360.65;;;9.13;74.11
76229;BME280;65021;53.174;18.160;2023-04-15T03:05:10;100359.73;;;9.14;74.12
76229;BME280;65021;53.174;18.160;2023-04-15T03:07:37;100358.98;;;9.15;74.28
76229;BME280;65021;53.174;18.160;2023-04-15T03:10:03;100363.05;;;9.16;74.55
76229;BME280;65021;53.174;18.160;2023-04-15T03:12:30;100364.23;;;9.17;74.44
76229;BME280;65021;53.174;18.160;2023-04-15T03:14:57;100360.39;;;9.19;74.73
76229;BME280;65021;53.174;18.160;2023-04-15T03:17:24;100362.23;;;9.22;74.44
76229;BME280;65021;53.174;18.160;2023-04-15T03:19:50;100366.51;;;9.25;74.30
76229;BME280;65021;53.174;18.160;2023-04-15T03:22:17;100363.54;;;9.27;74.24
76229;BME280;65021;53.174;18.160;2023-04-15T03:24:43;100359.87;;;9.29;74.31
76229;BME280;65021;53.174;18.160;2023-04-15T03:27:10;100358.58;;;9.32;74.45
76229;BME280;65021;53.174;18.160;2023-04-15T03:29:36;100360.40;;;9.34;74.37
76229;BME280;65021;53.174;18.160;2023-04-15T03:32:03;100360.99;;;9.36;74.35
76229;BME280;65021;53.174;18.160;2023-04-15T03:34:30;100362.38;;;9.39;74.32
76229;BME280;65021;53.174;18.160;2023-04-15T03:36:56;100361.79;;;9.42;74.26
76229;BME280;65021;53.174;18.160;2023-04-15T03:39:23;100365.30;;;9.44;74.11
76229;BME280;65021;53.174;18.160;2023-04-15T03:41:52;100360.08;;;9.44;73.98
76229;BME280;65021;53.174;18.160;2023-04-15T03:44:19;100361.52;;;9.45;74.13
76229;BME280;65021;53.174;18.160;2023-04-15T03:46:46;100363.10;;;9.45;73.88
76229;BME280;65021;53.174;18.160;2023-04-15T03:49:13;100362.27;;;9.45;73.92
76229;BME280;65021;53.174;18.160;2023-04-15T03:51:39;100361.22;;;9.45;73.86
76229;BME280;65021;53.174;18.160;2023-04-15T03:54:06;100362.55;;;9.44;74.01
76229;BME280;65021;53.174;18.160;2023-04-15T03:56:33;100362.04;;;9.44;73.93
76229;BME280;65021;53.174;18.160;2023-04-15T03:59:00;100362.98;;;9.44;73.97
76229;BME280;65021;53.174;18.160;2023-04-15T04:01:26;100362.06;;;9.45;74.02
76229;BME280;65021;53.174;18.160;2023-04-15T04:03:53;100364.20;;;9.47;74.09
76229;BME280;65021;53.174;18.160;2023-04-15T04:06:20;100366.35;;;9.48;74.01
76229;BME280;65021;53.174;18.160;2023-04-15T04:08:47;100367.59;;;9.50;73.85
76229;BME280;65021;53.174;18.160;2023-04-15T04:11:13;100369.00;;;9.51;73.89
76229;BME280;65021;53.174;18.160;2023-04-15T04:13:40;100367.81;;;9.53;73.85
76229;BME280;65021;53.174;18.160;2023-04-15T04:16:07;100366.29;;;9.54;73.89
76229;BME280;65021;53.174;18.160;2023-04-15T04:18:33;100366.19;;;9.55;73.79
76229;BME280;65021;53.174;18.160;2023-04-15T04:21:00;100364.98;;;9.56;73.81
76229;BME280;65021;53.174;18.160;2023-04-15T04:23:27;100365.16;;;9.57;73.78
76229;BME280;65021;53.174;18.160;2023-04-15T04:25:53;100369.00;;;9.57;73.90
76229;BME280;65021;53.174;18.160;2023-04-15T04:28:20;100367.96;;;9.59;73.96
76229;BME280;65021;53.174;18.160;2023-04-15T04:30:47;100366.48;;;9.60;73.83
76229;BME280;65021;53.174;18.160;2023-04-15T04:33:13;100371.36;;;9.62;73.77
76229;BME280;65021;53.174;18.160;2023-04-15T04:35:40;100369.46;;;9.64;73.74
76229;BME280;65021;53.174;18.160;2023-04-15T04:38:06;100368.27;;;9.66;73.90
76229;BME280;65021;53.174;18.160;2023-04-15T04:40:33;100370.46;;;9.67;73.89
76229;BME280;65021;53.174;18.160;2023-04-15T04:42:59;100370.98;;;9.69;73.83
76229;BME280;65021;53.174;18.160;2023-04-15T04:45:26;100368.13;;;9.70;73.73
76229;BME280;65021;53.174;18.160;2023-04-15T04:47:53;100372.22;;;9.72;73.69
76229;BME280;65021;53.174;18.160;2023-04-15T04:50:19;100369.14;;;9.74;73.68
76229;BME280;65021;53.174;18.160;2023-04-15T04:52:46;100369.61;;;9.76;73.54
76229;BME280;65021;53.174;18.160;2023-04-15T04:55:12;100371.27;;;9.78;73.48
76229;BME280;65021;53.174;18.160;2023-04-15T04:57:39;100374.52;;;9.79;73.40
76229;BME280;65021;53.174;18.160;2023-04-15T05:00:07;100370.95;;;9.82;73.43
76229;BME280;65021;53.174;18.160;2023-04-15T05:02:34;100373.08;;;9.83;73.27
76229;BME280;65021;53.174;18.160;2023-04-15T05:05:01;100372.06;;;9.85;73.38
76229;BME280;65021;53.174;18.160;2023-04-15T05:07:28;100370.20;;;9.86;73.39
76229;BME280;65021;53.174;18.160;2023-04-15T05:09:54;100377.43;;;9.88;73.30
76229;BME280;65021;53.174;18.160;2023-04-15T05:12:21;100381.10;;;9.88;73.37
76229;BME280;65021;53.174;18.160;2023-04-15T05:14:48;100379.40;;;9.89;73.39
76229;BME280;65021;53.174;18.160;2023-04-15T05:17:14;100379.77;;;9.90;73.50
76229;BME280;65021;53.174;18.160;2023-04-15T05:19:41;100382.86;;;9.91;73.43
76229;BME280;65021;53.174;18.160;2023-04-15T05:22:07;100380.45;;;9.92;73.42
76229;BME280;65021;53.174;18.160;2023-04-15T05:24:35;100379.65;;;9.91;73.54
76229;BME280;65021;53.174;18.160;2023-04-15T05:27:01;100381.98;;;9.91;73.45
76229;BME280;65021;53.174;18.160;2023-04-15T05:29:29;100384.21;;;9.92;73.47
76229;BME280;65021;53.174;18.160;2023-04-15T05:31:56;100387.63;;;9.93;73.55
76229;BME280;65021;53.174;18.160;2023-04-15T05:34:22;100389.89;;;9.93;73.61
76229;BME280;65021;53.174;18.160;2023-04-15T05:36:49;100392.41;;;9.94;73.46
76229;BME280;65021;53.174;18.160;2023-04-15T05:39:15;100395.67;;;9.96;73.57
76229;BME280;65021;53.174;18.160;2023-04-15T05:41:42;100394.52;;;9.96;73.65
76229;BME280;65021;53.174;18.160;2023-04-15T05:44:09;100392.81;;;9.94;74.00
76229;BME280;65021;53.174;18.160;2023-04-15T05:46:35;100394.04;;;9.93;74.02
76229;BME280;65021;53.174;18.160;2023-04-15T05:49:02;100397.90;;;9.90;74.49
76229;BME280;65021;53.174;18.160;2023-04-15T05:51:29;100391.81;;;9.84;75.05
76229;BME280;65021;53.174;18.160;2023-04-15T05:53:55;100391.81;;;9.79;75.71
76229;BME280;65021;53.174;18.160;2023-04-15T05:56:22;100399.21;;;9.73;75.89
76229;BME280;65021;53.174;18.160;2023-04-15T05:58:49;100403.69;;;9.69;76.49
76229;BME280;65021;53.174;18.160;2023-04-15T06:01:15;100408.16;;;9.62;77.20
76229;BME280;65021;53.174;18.160;2023-04-15T06:03:42;100410.14;;;9.50;78.53
76229;BME280;65021;53.174;18.160;2023-04-15T06:06:09;100408.48;;;9.41;78.57
76229;BME280;65021;53.174;18.160;2023-04-15T06:08:36;100412.83;;;9.37;79.41
76229;BME280;65021;53.174;18.160;2023-04-15T06:11:02;100411.40;;;9.32;79.48
76229;BME280;65021;53.174;18.160;2023-04-15T06:13:29;100414.43;;;9.28;80.13
76229;BME280;65021;53.174;18.160;2023-04-15T06:15:56;100413.50;;;9.23;80.68
76229;BME280;65021;53.174;18.160;2023-04-15T06:18:23;100413.02;;;9.18;80.79
76229;BME280;65021;53.174;18.160;2023-04-15T06:20:49;100416.64;;;9.14;80.91
76229;BME280;65021;53.174;18.160;2023-04-15T06:23:16;100416.17;;;9.10;81.25
76229;BME280;65021;53.174;18.160;2023-04-15T06:25:43;100424.20;;;9.08;80.91
76229;BME280;65021;53.174;18.160;2023-04-15T06:28:10;100418.74;;;9.07;81.68
76229;BME280;65021;53.174;18.160;2023-04-15T06:30:36;100420.96;;;9.07;81.80
76229;BME280;65021;53.174;18.160;2023-04-15T06:33:04;100422.98;;;9.07;81.60
76229;BME280;65021;53.174;18.160;2023-04-15T06:35:31;100423.08;;;9.04;81.99
76229;BME280;65021;53.174;18.160;2023-04-15T06:37:58;100421.45;;;9.03;82.00
76229;BME280;65021;53.174;18.160;2023-04-15T06:40:24;100426.82;;;9.03;82.25
76229;BME280;65021;53.174;18.160;2023-04-15T06:42:51;100423.02;;;9.02;81.84
76229;BME280;65021;53.174;18.160;2023-04-15T06:45:18;100427.96;;;9.03;82.15
76229;BME280;65021;53.174;18.160;2023-04-15T06:47:44;100426.51;;;9.01;82.98
76229;BME280;65021;53.174;18.160;2023-04-15T06:50:11;100428.44;;;9.01;82.93
76229;BME280;65021;53.174;18.160;2023-04-15T06:52:37;100428.15;;;9.00;82.96
76229;BME280;65021;53.174;18.160;2023-04-15T06:55:05;100430.54;;;9.01;82.54
76229;BME280;65021;53.174;18.160;2023-04-15T06:57:32;100433.48;;;9.02;82.84
76229;BME280;65021;53.174;18.160;2023-04-15T06:59:58;100437.91;;;9.03;83.24
76229;BME280;65021;53.174;18.160;2023-04-15T07:02:26;100435.60;;;9.07;82.73
76229;BME280;65021;53.174;18.160;2023-04-15T07:04:53;100437.17;;;9.10;82.97
76229;BME280;65021;53.174;18.160;2023-04-15T07:07:19;100441.69;;;9.14;82.83
76229;BME280;65021;53.174;18.160;2023-04-15T07:09:46;100443.66;;;9.15;83.06
76229;BME280;65021;53.174;18.160;2023-04-15T07:12:13;100448.48;;;9.15;83.49
76229;BME280;65021;53.174;18.160;2023-04-15T07:14:39;100451.73;;;9.14;83.72
76229;BME280;65021;53.174;18.160;2023-04-15T07:17:07;100447.89;;;9.16;83.37
76229;BME280;65021;53.174;18.160;2023-04-15T07:19:34;100450.89;;;9.21;82.91
76229;BME280;65021;53.174;18.160;2023-04-15T07:22:01;100455.66;;;9.25;82.93
76229;BME280;65021;53.174;18.160;2023-04-15T07:24:27;100456.09;;;9.25;83.09
76229;BME280;65021;53.174;18.160;2023-04-15T07:26:54;100459.77;;;9.27;83.42
76229;BME280;65021;53.174;18.160;2023-04-15T07:29:24;100463.45;;;9.28;83.28
76229;BME280;65021;53.174;18.160;2023-04-15T07:31:52;100463.73;;;9.25;83.48
76229;BME280;65021;53.174;18.160;2023-04-15T07:34:19;100462.20;;;9.21;83.86
76229;BME280;65021;53.174;18.160;2023-04-15T07:36:46;100465.81;;;9.16;84.29
76229;BME280;65021;53.174;18.160;2023-04-15T07:39:17;100463.70;;;9.14;84.14
76229;BME280;65021;53.174;18.160;2023-04-15T07:41:44;100466.77;;;9.12;85.04
76229;BME280;65021;53.174;18.160;2023-04-15T07:44:11;100470.20;;;9.11;84.62
76229;BME280;65021;53.174;18.160;2023-04-15T07:46:38;100467.94;;;9.09;84.86
76229;BME280;65021;53.174;18.160;2023-04-15T07:49:05;100468.86;;;9.08;84.93
76229;BME280;65021;53.174;18.160;2023-04-15T07:51:32;100468.30;;;9.08;84.98
76229;BME280;65021;53.174;18.160;2023-04-15T07:53:59;100470.65;;;9.09;85.11
76229;BME280;65021;53.174;18.160;2023-04-15T07:56:25;100466.77;;;9.12;84.92
76229;BME280;65021;53.174;18.160;2023-04-15T07:58:52;100467.73;;;9.14;85.15
76229;BME280;65021;53.174;18.160;2023-04-15T08:01:19;100473.13;;;9.16;84.83
76229;BME280;65021;53.174;18.160;2023-04-15T08:03:45;100474.52;;;9.16;85.11
76229;BME280;65021;53.174;18.160;2023-04-15T08:06:12;100475.52;;;9.17;85.04
76229;BME280;65021;53.174;18.160;2023-04-15T08:08:39;100475.48;;;9.22;84.69
76229;BME280;65021;53.174;18.160;2023-04-15T08:11:06;100476.96;;;9.27;84.50
76229;BME280;65021;53.174;18.160;2023-04-15T08:13:32;100475.84;;;9.32;84.40
76229;BME280;65021;53.174;18.160;2023-04-15T08:18:45;100477.45;;;9.44;83.66
76229;BME280;65021;53.174;18.160;2023-04-15T08:21:12;100483.02;;;9.49;83.67
76229;BME280;65021;53.174;18.160;2023-04-15T08:23:39;100479.03;;;9.51;83.42
76229;BME280;65021;53.174;18.160;2023-04-15T08:26:06;100481.95;;;9.55;83.42
76229;BME280;65021;53.174;18.160;2023-04-15T08:28:34;100484.14;;;9.56;83.40
76229;BME280;65021;53.174;18.160;2023-04-15T08:31:01;100482.95;;;9.58;83.63
76229;BME280;65021;53.174;18.160;2023-04-15T08:33:27;100485.95;;;9.61;83.41
76229;BME280;65021;53.174;18.160;2023-04-15T08:35:54;100488.52;;;9.61;83.32
76229;BME280;65021;53.174;18.160;2023-04-15T08:38:20;100490.14;;;9.63;83.36
76229;BME280;65021;53.174;18.160;2023-04-15T08:40:48;100487.84;;;9.64;83.28
76229;BME280;65021;53.174;18.160;2023-04-15T08:43:20;100490.56;;;9.67;83.17
76229;BME280;65021;53.174;18.160;2023-04-15T08:45:49;100492.45;;;9.66;83.38
76229;BME280;65021;53.174;18.160;2023-04-15T08:48:17;100493.13;;;9.67;83.21
76229;BME280;65021;53.174;18.160;2023-04-15T08:50:45;100499.96;;;9.70;82.96
76229;BME280;65021;53.174;18.160;2023-04-15T08:53:13;100500.25;;;9.74;83.05
76229;BME280;65021;53.174;18.160;2023-04-15T08:55:44;100494.73;;;9.79;82.86
76229;BME280;65021;53.174;18.160;2023-04-15T08:58:12;100499.04;;;9.83;82.78
76229;BME280;65021;53.174;18.160;2023-04-15T09:00:39;100498.70;;;9.87;82.63
76229;BME280;65021;53.174;18.160;2023-04-15T09:03:07;100493.48;;;9.95;82.78
76229;BME280;65021;53.174;18.160;2023-04-15T09:05:35;100497.98;;;9.97;82.52
76229;BME280;65021;53.174;18.160;2023-04-15T09:08:03;100503.63;;;9.97;82.55
76229;BME280;65021;53.174;18.160;2023-04-15T09:10:32;100501.34;;;9.96;82.46
76229;BME280;65021;53.174;18.160;2023-04-15T09:12:59;100498.81;;;10.00;82.57
76229;BME280;65021;53.174;18.160;2023-04-15T09:15:26;100499.84;;;10.02;82.42
76229;BME280;65021;53.174;18.160;2023-04-15T09:17:55;100502.52;;;9.99;82.23
76229;BME280;65021;53.174;18.160;2023-04-15T09:20:22;100501.91;;;9.99;82.33
76229;BME280;65021;53.174;18.160;2023-04-15T09:22:49;100501.23;;;9.99;82.50
76229;BME280;65021;53.174;18.160;2023-04-15T09:27:51;100497.27;;;10.07;82.22
76229;BME280;65021;53.174;18.160;2023-04-15T09:30:18;100499.48;;;10.11;82.45
76229;BME280;65021;53.174;18.160;2023-04-15T09:32:53;100496.44;;;10.11;82.24
76229;BME280;65021;53.174;18.160;2023-04-15T09:35:22;100499.73;;;10.17;82.34
76229;BME280;65021;53.174;18.160;2023-04-15T09:37:49;100496.81;;;10.21;82.25
76229;BME280;65021;53.174;18.160;2023-04-15T09:40:37;100494.98;;;10.22;81.70
76229;BME280;65021;53.174;18.160;2023-04-15T09:43:05;100502.11;;;10.26;81.88
76229;BME280;65021;53.174;18.160;2023-04-15T09:45:33;100497.15;;;10.32;81.82
76229;BME280;65021;53.174;18.160;2023-04-15T09:48:19;100501.55;;;10.36;81.67
76229;BME280;65021;53.174;18.160;2023-04-15T09:50:49;100500.06;;;10.36;81.29
76229;BME280;65021;53.174;18.160;2023-04-15T09:53:17;100501.21;;;10.32;81.49
76229;BME280;65021;53.174;18.160;2023-04-15T09:55:48;100502.70;;;10.28;81.80
76229;BME280;65021;53.174;18.160;2023-04-15T09:58:23;100507.73;;;10.30;81.91
76229;BME280;65021;53.174;18.160;2023-04-15T10:00:51;100505.90;;;10.33;81.94
76229;BME280;65021;53.174;18.160;2023-04-15T10:03:21;100501.33;;;10.35;81.56
76229;BME280;65021;53.174;18.160;2023-04-15T10:05:50;100502.86;;;10.41;81.94
76229;BME280;65021;53.174;18.160;2023-04-15T10:08:28;100502.34;;;10.46;81.53
76229;BME280;65021;53.174;18.160;2023-04-15T10:10:55;100503.89;;;10.52;81.16
76229;BME280;65021;53.174;18.160;2023-04-15T10:13:23;100503.54;;;10.58;81.05
76229;BME280;65021;53.174;18.160;2023-04-15T10:16:05;100505.74;;;10.60;81.03
76229;BME280;65021;53.174;18.160;2023-04-15T10:18:37;100507.16;;;10.58;81.23
76229;BME280;65021;53.174;18.160;2023-04-15T10:21:07;100507.02;;;10.60;81.29
76229;BME280;65021;53.174;18.160;2023-04-15T10:23:34;100503.23;;;10.62;81.13
76229;BME280;65021;53.174;18.160;2023-04-15T10:26:03;100506.59;;;10.64;81.36
76229;BME280;65021;53.174;18.160;2023-04-15T10:28:30;100504.70;;;10.67;81.16
76229;BME280;65021;53.174;18.160;2023-04-15T10:30:57;100505.03;;;10.64;80.98
76229;BME280;65021;53.174;18.160;2023-04-15T10:33:26;100510.55;;;10.61;80.81
76229;BME280;65021;53.174;18.160;2023-04-15T10:35:54;100509.23;;;10.59;80.47
76229;BME280;65021;53.174;18.160;2023-04-15T10:38:40;100508.82;;;10.62;80.42
76229;BME280;65021;53.174;18.160;2023-04-15T10:41:26;100509.17;;;10.62;80.69
76229;BME280;65021;53.174;18.160;2023-04-15T10:43:59;100512.64;;;10.60;81.06
76229;BME280;65021;53.174;18.160;2023-04-15T10:49:14;100512.61;;;10.62;80.75
76229;BME280;65021;53.174;18.160;2023-04-15T10:51:42;100513.56;;;10.65;80.84
76229;BME280;65021;53.174;18.160;2023-04-15T10:54:32;100511.19;;;10.66;80.53
76229;BME280;65021;53.174;18.160;2023-04-15T11:02:20;100521.88;;;10.74;81.09
76229;BME280;65021;53.174;18.160;2023-04-15T11:04:54;100521.65;;;10.74;81.03
76229;BME280;65021;53.174;18.160;2023-04-15T11:13:01;100523.95;;;10.62;81.07
76229;BME280;65021;53.174;18.160;2023-04-15T11:15:35;100525.09;;;10.60;81.73
76229;BME280;65021;53.174;18.160;2023-04-15T11:20:37;100525.83;;;10.51;81.49
76229;BME280;65021;53.174;18.160;2023-04-15T11:23:04;100529.25;;;10.47;81.73
76229;BME280;65021;53.174;18.160;2023-04-15T11:25:34;100527.83;;;10.47;81.97
76229;BME280;65021;53.174;18.160;2023-04-15T11:28:01;100524.58;;;10.49;82.28
76229;BME280;65021;53.174;18.160;2023-04-15T11:30:32;100535.02;;;10.52;82.07
76229;BME280;65021;53.174;18.160;2023-04-15T11:33:01;100533.47;;;10.56;82.14
76229;BME280;65021;53.174;18.160;2023-04-15T11:35:29;100533.60;;;10.60;82.20
76229;BME280;65021;53.174;18.160;2023-04-15T11:37:56;100536.96;;;10.59;82.28
76229;BME280;65021;53.174;18.160;2023-04-15T11:40:28;100540.55;;;10.55;82.37
76229;BME280;65021;53.174;18.160;2023-04-15T11:43:14;100540.68;;;10.52;82.37
76229;BME280;65021;53.174;18.160;2023-04-15T11:45:54;100545.84;;;10.47;82.94
76229;BME280;65021;53.174;18.160;2023-04-15T11:48:26;100547.64;;;10.43;82.77
76229;BME280;65021;53.174;18.160;2023-04-15T11:50:55;100544.41;;;10.39;82.49
76229;BME280;65021;53.174;18.160;2023-04-15T11:53:22;100541.68;;;10.37;82.76
76229;BME280;65021;53.174;18.160;2023-04-15T11:55:51;100549.25;;;10.37;82.91
76229;BME280;65021;53.174;18.160;2023-04-15T11:58:24;100550.58;;;10.37;83.19
76229;BME280;65021;53.174;18.160;2023-04-15T12:00:58;100544.23;;;10.32;82.85
76229;BME280;65021;53.174;18.160;2023-04-15T12:03:30;100550.64;;;10.31;83.43
76229;BME280;65021;53.174;18.160;2023-04-15T12:06:11;100552.25;;;10.33;83.16
76229;BME280;65021;53.174;18.160;2023-04-15T12:13:55;100558.48;;;10.28;83.22
76229;BME280;65021;53.174;18.160;2023-04-15T12:16:23;100558.95;;;10.23;83.32
76229;BME280;65021;53.174;18.160;2023-04-15T12:18:51;100563.02;;;10.19;83.38
76229;BME280;65021;53.174;18.160;2023-04-15T12:21:19;100556.20;;;10.16;83.39
76229;BME280;65021;53.174;18.160;2023-04-15T12:23:56;100561.92;;;10.16;83.44
76229;BME280;65021;53.174;18.160;2023-04-15T12:26:28;100560.92;;;10.17;83.66
76229;BME280;65021;53.174;18.160;2023-04-15T12:29:00;100556.30;;;10.19;83.41
76229;BME280;65021;53.174;18.160;2023-04-15T12:31:27;100558.40;;;10.24;83.53
76229;BME280;65021;53.174;18.160;2023-04-15T12:33:55;100561.28;;;10.32;83.68
76229;BME280;65021;53.174;18.160;2023-04-15T12:36:22;100563.70;;;10.40;83.21
76229;BME280;65021;53.174;18.160;2023-04-15T12:38:49;100562.29;;;10.44;83.34
76229;BME280;65021;53.174;18.160;2023-04-15T12:41:16;100559.33;;;10.54;83.24
76229;BME280;65021;53.174;18.160;2023-04-15T12:43:44;100559.44;;;10.66;83.01
76229;BME280;65021;53.174;18.160;2023-04-15T12:46:12;100559.91;;;10.71;82.80
76229;BME280;65021;53.174;18.160;2023-04-15T12:48:39;100558.88;;;10.72;82.57
76229;BME280;65021;53.174;18.160;2023-04-15T12:51:06;100565.44;;;10.79;82.61
76229;BME280;65021;53.174;18.160;2023-04-15T12:53:32;100565.05;;;10.86;82.02
76229;BME280;65021;53.174;18.160;2023-04-15T12:56:00;100565.61;;;10.90;82.04
76229;BME280;65021;53.174;18.160;2023-04-15T12:58:27;100567.17;;;10.86;82.20
76229;BME280;65021;53.174;18.160;2023-04-15T13:00:54;100570.83;;;10.85;82.06
76229;BME280;65021;53.174;18.160;2023-04-15T13:03:20;100566.57;;;10.80;81.83
76229;BME280;65021;53.174;18.160;2023-04-15T13:05:47;100572.26;;;10.81;82.48
76229;BME280;65021;53.174;18.160;2023-04-15T13:08:13;100572.31;;;10.87;82.27
76229;BME280;65021;53.174;18.160;2023-04-15T13:10:41;100570.70;;;10.95;82.43
76229;BME280;65021;53.174;18.160;2023-04-15T13:13:07;100578.21;;;11.02;82.10
76229;BME280;65021;53.174;18.160;2023-04-15T13:15:34;100575.85;;;10.99;81.87
76229;BME280;65021;53.174;18.160;2023-04-15T13:18:01;100573.89;;;10.95;81.97